Time;durP1;ratioP1;P1;durP2;ratioP2;P2;SDS_P1;SDS_P2;PMS_P1;PMS_P2;Temp;Humidity;BMP_temperature;BMP_pressure;BME280_temperature;BME280_humidity;BME280_pressure;Samples;Min_cycle;Max_cycle;Signal;HPM_P1;HPM_P2
2023/06/29 00:00:17;;;;;;;27.10;19.70;;;22.30;82.80;;;;;;4016993;29;20060;-49
2023/06/29 00:02:59;;;;;;;26.27;20.02;;;22.30;82.90;;;;;;4018504;29;20182;-47
2023/06/29 00:05:42;;;;;;;28.98;20.08;;;22.30;83.00;;;;;;4006365;29;20522;-49
2023/06/29 00:08:24;;;;;;;26.90;19.15;;;22.30;82.90;;;;;;4018603;29;20064;-50
2023/06/29 00:11:07;;;;;;;27.42;20.17;;;22.30;82.90;;;;;;4018086;29;20073;-46
2023/06/29 00:13:48;;;;;;;32.10;19.63;;;22.40;83.10;;;;;;4007427;29;20053;-47
2023/06/29 00:16:30;;;;;;;27.65;20.42;;;22.30;82.90;;;;;;4018424;29;20506;-46
2023/06/29 00:19:14;;;;;;;28.95;20.10;;;22.30;82.90;;;;;;4018919;29;20450;-46
2023/06/29 00:21:57;;;;;;;25.85;20.88;;;22.30;83.00;;;;;;4003831;29;20513;-48
2023/06/29 00:24:42;;;;;;;27.95;20.17;;;22.30;83.00;;;;;;4004651;29;20053;-50
2023/06/29 00:27:24;;;;;;;28.25;21.10;;;22.30;83.00;;;;;;4002273;29;20061;-47
2023/06/29 00:30:06;;;;;;;28.60;20.80;;;22.30;83.00;;;;;;4007833;29;20534;-51
2023/06/29 00:32:47;;;;;;;28.83;20.70;;;22.30;83.00;;;;;;4018421;29;20060;-51
2023/06/29 00:35:29;;;;;;;30.08;21.20;;;22.30;83.00;;;;;;4018203;29;20068;-50
2023/06/29 00:38:11;;;;;;;30.50;21.13;;;22.30;83.00;;;;;;4018671;29;20083;-48
2023/06/29 00:40:52;;;;;;;29.45;21.38;;;22.30;83.00;;;;;;3995356;29;20061;-50
2023/06/29 00:43:32;;;;;;;33.55;23.45;;;22.30;83.00;;;;;;4007157;29;20057;-50
2023/06/29 00:46:19;;;;;;;30.35;21.60;;;22.30;83.10;;;;;;4006510;29;20056;-49
2023/06/29 00:49:01;;;;;;;30.33;22.70;;;22.30;83.10;;;;;;4005969;29;20064;-49
2023/06/29 00:51:47;;;;;;;31.80;21.23;;;22.30;83.10;;;;;;4017595;29;20052;-49
2023/06/29 00:54:28;;;;;;;32.17;22.35;;;22.30;83.10;;;;;;4006266;29;20109;-48
2023/06/29 00:57:10;;;;;;;31.58;22.27;;;22.30;83.10;;;;;;3990870;29;20190;-51
2023/06/29 00:59:50;;;;;;;29.70;21.65;;;22.30;83.10;;;;;;4017475;29;20405;-49
2023/06/29 01:02:31;;;;;;;33.00;21.90;;;22.30;83.10;;;;;;4017629;29;20056;-51
2023/06/29 01:05:16;;;;;;;30.58;23.15;;;22.30;83.10;;;;;;4005857;29;20059;-51
2023/06/29 01:08:04;;;;;;;28.42;22.05;;;22.30;83.20;;;;;;3994544;29;20213;-46
2023/06/29 01:10:47;;;;;;;28.30;21.83;;;22.30;83.40;;;;;;4006156;29;20051;-46
2023/06/29 01:13:29;;;;;;;31.90;22.33;;;22.30;83.20;;;;;;4017961;29;20072;-48
2023/06/29 01:16:12;;;;;;;31.63;22.52;;;22.30;83.20;;;;;;4017592;29;20061;-44
2023/06/29 01:18:56;;;;;;;27.58;21.40;;;22.30;83.20;;;;;;4001458;29;20582;-47
2023/06/29 01:21:49;;;;;;;29.88;21.75;;;22.30;83.20;;;;;;4018010;29;20140;-47
2023/06/29 01:24:38;;;;;;;30.40;21.50;;;22.30;83.20;;;;;;4006111;29;20437;-45
2023/06/29 01:27:20;;;;;;;27.20;21.20;;;22.30;83.40;;;;;;4002575;29;20398;-46
2023/06/29 01:30:01;;;;;;;32.70;21.40;;;22.30;83.30;;;;;;4002456;29;20580;-44
2023/06/29 01:32:44;;;;;;;35.45;22.20;;;22.30;83.30;;;;;;4002533;29;20187;-44
2023/06/29 01:35:26;;;;;;;34.45;21.60;;;22.30;83.30;;;;;;4016933;29;20069;-45
2023/06/29 01:38:12;;;;;;;30.92;21.92;;;22.30;83.30;;;;;;4017029;29;21081;-45
2023/06/29 01:40:56;;;;;;;27.60;20.48;;;22.30;83.40;;;;;;4017556;29;20543;-45
2023/06/29 01:43:38;;;;;;;30.55;22.20;;;22.30;83.30;;;;;;4005743;29;20576;-45
2023/06/29 01:46:20;;;;;;;29.67;21.05;;;22.30;83.30;;;;;;4005731;29;20186;-49
2023/06/29 01:49:02;;;;;;;25.95;20.75;;;22.30;83.30;;;;;;4005466;29;20064;-49
2023/06/29 01:51:43;;;;;;;28.70;22.20;;;22.30;83.40;;;;;;4017118;29;20141;-48
2023/06/29 01:54:24;;;;;;;36.60;23.35;;;22.30;83.40;;;;;;3993335;29;20065;-50
2023/06/29 01:57:09;;;;;;;30.98;21.00;;;22.30;83.30;;;;;;4017017;29;20136;-47
2023/06/29 01:59:50;;;;;;;30.70;22.75;;;22.30;84.30;;;;;;4005419;29;20065;-45
2023/06/29 02:02:31;;;;;;;33.03;23.48;;;22.30;83.50;;;;;;4016800;29;20599;-47
2023/06/29 02:05:11;;;;;;;;;;;22.30;83.40;;;;;;3990417;29;20061;-51
2023/06/29 02:07:53;;;;;;;30.95;21.73;;;22.20;83.20;;;;;;4001842;29;19931;-45
2023/06/29 02:10:35;;;;;;;30.83;22.67;;;22.20;82.90;;;;;;4000970;29;20061;-47
2023/06/29 02:13:18;;;;;;;34.50;22.48;;;22.20;83.20;;;;;;4003524;29;20044;-44
2023/06/29 02:15:59;;;;;;;31.48;22.17;;;22.20;83.40;;;;;;4005306;29;20053;-45
2023/06/29 02:18:40;;;;;;;31.90;23.30;;;22.20;83.50;;;;;;4005559;29;20069;-47
2023/06/29 02:21:21;;;;;;;33.83;23.67;;;22.20;83.50;;;;;;4016975;29;20166;-46
2023/06/29 02:24:02;;;;;;;32.22;23.83;;;22.30;83.60;;;;;;4016445;29;20409;-53
2023/06/29 02:26:43;;;;;;;33.35;22.50;;;22.20;83.50;;;;;;4005516;29;20052;-45
2023/06/29 02:29:25;;;;;;;;;;;22.20;83.50;;;;;;4005928;29;20064;-46
2023/06/29 02:32:07;;;;;;;33.90;24.38;;;22.20;83.30;;;;;;4001839;29;20386;-44
2023/06/29 02:34:49;;;;;;;32.90;23.80;;;22.20;83.10;;;;;;4015945;29;20060;-45
2023/06/29 02:37:31;;;;;;;32.22;22.27;;;22.20;84.20;;;;;;4005318;29;20053;-44
2023/06/29 02:40:13;;;;;;;30.58;23.40;;;22.20;83.50;;;;;;3994339;29;20121;-46
2023/06/29 02:42:55;;;;;;;30.80;23.20;;;22.20;84.30;;;;;;4005034;29;20221;-48
2023/06/29 02:45:40;;;;;;;32.65;23.52;;;22.20;83.40;;;;;;3990273;29;20084;-48
2023/06/29 02:48:21;;;;;;;33.50;23.42;;;22.20;83.50;;;;;;3990042;29;20417;-45
2023/06/29 02:51:02;;;;;;;;;;;22.20;83.50;;;;;;4014341;29;20061;-44
2023/06/29 02:53:43;;;;;;;33.60;23.35;;;22.20;83.40;;;;;;4004098;29;19943;-50
2023/06/29 02:56:25;;;;;;;33.08;23.73;;;22.20;83.10;;;;;;4004798;29;20117;-49
2023/06/29 02:59:08;;;;;;;32.80;23.35;;;22.20;83.30;;;;;;4016280;29;20186;-49
2023/06/29 03:01:50;;;;;;;32.22;22.90;;;22.20;83.40;;;;;;4000986;29;20777;-45
2023/06/29 03:04:31;;;;;;;30.27;21.60;;;22.20;83.60;;;;;;4000280;29;20178;-48
2023/06/29 03:07:14;;;;;;;31.88;21.63;;;22.20;83.50;;;;;;3979126;29;20458;-48
2023/06/29 03:09:55;;;;;;;33.63;22.60;;;22.20;83.70;;;;;;4007544;29;20092;-47
2023/06/29 03:12:36;;;;;;;36.88;23.90;;;22.20;83.50;;;;;;4016061;29;20052;-45
2023/06/29 03:15:17;;;;;;;31.65;23.38;;;22.20;83.50;;;;;;4015672;29;20537;-48
2023/06/29 03:17:59;;;;;;;30.50;22.50;;;22.20;83.50;;;;;;4006414;29;20056;-45
2023/06/29 03:20:40;;;;;;;31.73;23.33;;;22.20;83.50;;;;;;4018658;29;20508;-45
2023/06/29 03:23:21;;;;;;;32.92;23.73;;;22.20;83.60;;;;;;4018896;29;20060;-45
2023/06/29 03:26:02;;;;;;;33.00;23.25;;;22.20;83.60;;;;;;4019220;29;20063;-46
2023/06/29 03:28:43;;;;;;;36.95;23.50;;;22.20;83.60;;;;;;4019466;29;20602;-46
2023/06/29 03:31:24;;;;;;;30.98;24.17;;;22.20;83.50;;;;;;4004034;29;20198;-45
2023/06/29 03:34:09;;;;;;;30.52;22.90;;;22.20;83.50;;;;;;4004527;29;20413;-45
2023/06/29 03:36:50;;;;;;;31.52;22.50;;;22.20;83.60;;;;;;4003668;29;20182;-50
2023/06/29 03:39:31;;;;;;;33.75;23.02;;;22.20;83.60;;;;;;4009576;29;20053;-51
2023/06/29 03:42:12;;;;;;;34.28;23.73;;;22.20;83.60;;;;;;4019200;29;20057;-49
2023/06/29 03:44:53;;;;;;;31.58;23.65;;;22.20;83.60;;;;;;4018437;29;20405;-47
2023/06/29 03:47:34;;;;;;;30.85;22.15;;;22.20;83.70;;;;;;4007268;29;20529;-48
2023/06/29 03:50:16;;;;;;;;;;;22.20;83.70;;;;;;4017513;29;20136;-50
2023/06/29 03:52:57;;;;;;;33.05;23.00;;;22.20;83.50;;;;;;4019462;29;20037;-49
2023/06/29 03:55:38;;;;;;;31.65;22.85;;;22.20;83.20;;;;;;4008384;29;20056;-47
2023/06/29 03:58:19;;;;;;;29.10;21.27;;;22.20;83.60;;;;;;4018761;29;20052;-50
2023/06/29 04:01:00;;;;;;;29.10;21.83;;;22.20;83.70;;;;;;4018646;29;20057;-51
2023/06/29 04:03:41;;;;;;;31.50;22.52;;;22.20;83.80;;;;;;4006549;29;20189;-48
2023/06/29 04:06:23;;;;;;;29.27;21.23;;;22.20;83.80;;;;;;4018596;29;20124;-48
2023/06/29 04:09:04;;;;;;;31.58;21.58;;;22.20;83.90;;;;;;4003570;29;20202;-49
2023/06/29 04:11:45;;;;;;;;;;;22.20;83.90;;;;;;4003501;29;20061;-48
2023/06/29 04:14:26;;;;;;;32.50;21.23;;;22.20;83.80;;;;;;4004718;29;20383;-48
2023/06/29 04:17:07;;;;;;;31.20;21.13;;;22.20;83.50;;;;;;4018253;29;20056;-47
2023/06/29 04:19:48;;;;;;;31.55;20.80;;;22.20;83.80;;;;;;4008662;29;20517;-51
2023/06/29 04:22:30;;;;;;;;;;;22.10;83.80;;;;;;4003772;29;20064;-50
2023/06/29 04:25:11;;;;;;;32.15;20.60;;;22.10;83.70;;;;;;4003333;29;19935;-53
2023/06/29 04:27:52;;;;;;;27.25;20.60;;;22.10;84.30;;;;;;4000613;29;20053;-50
2023/06/29 04:30:36;;;;;;;27.85;20.50;;;22.10;83.80;;;;;;4017385;29;20519;-49
2023/06/29 04:33:17;;;;;;;31.00;21.77;;;22.10;83.90;;;;;;4017816;29;20053;-45
2023/06/29 04:35:58;;;;;;;30.70;21.52;;;22.10;84.00;;;;;;4017606;29;20060;-46
2023/06/29 04:38:40;;;;;;;28.38;20.67;;;22.10;84.00;;;;;;4017999;29;20133;-51
2023/06/29 04:41:30;;;;;;;26.85;20.13;;;22.20;84.20;;;;;;4002611;29;20137;-48
2023/06/29 04:44:12;;;;;;;31.70;21.70;;;22.20;84.60;;;;;;4002945;29;20057;-51
2023/06/29 04:46:53;;;;;;;;;;;22.20;84.60;;;;;;4015321;29;20121;-48
2023/06/29 04:49:36;;;;;;;33.05;22.05;;;22.20;84.30;;;;;;4018338;29;20031;-50
2023/06/29 04:52:18;;;;;;;28.75;22.27;;;22.20;84.10;;;;;;4006834;29;20141;-49
2023/06/29 04:55:00;;;;;;;32.75;21.67;;;22.20;84.40;;;;;;4006429;29;20055;-52
2023/06/29 04:57:41;;;;;;;30.30;21.98;;;22.20;84.70;;;;;;4018000;29;20150;-49
2023/06/29 05:00:22;;;;;;;33.65;22.20;;;22.20;84.60;;;;;;4018087;29;20586;-49
2023/06/29 05:03:03;;;;;;;26.50;20.70;;;22.20;84.60;;;;;;4017805;29;20139;-48
2023/06/29 05:05:45;;;;;;;30.92;21.55;;;22.20;84.60;;;;;;4017404;29;20056;-48
2023/06/29 05:08:26;;;;;;;27.65;20.65;;;22.20;84.60;;;;;;4017250;29;20064;-50
2023/06/29 05:11:08;;;;;;;29.17;20.70;;;22.20;84.60;;;;;;4017360;29;20186;-47
2023/06/29 05:13:49;;;;;;;29.02;20.40;;;22.20;84.60;;;;;;4017362;29;20061;-49
2023/06/29 05:16:30;;;;;;;31.33;20.77;;;22.20;84.80;;;;;;4016908;29;20520;-49
2023/06/29 05:19:11;;;;;;;29.30;20.65;;;22.20;84.90;;;;;;4017671;29;20056;-51
2023/06/29 05:21:52;;;;;;;24.77;19.60;;;22.20;84.70;;;;;;4005871;29;20129;-48
2023/06/29 05:24:33;;;;;;;27.77;19.77;;;22.30;85.00;;;;;;4016925;29;20454;-48
2023/06/29 05:27:15;;;;;;;29.65;20.00;;;22.20;84.80;;;;;;4016968;29;20076;-50
2023/06/29 05:29:56;;;;;;;29.50;20.83;;;22.20;85.00;;;;;;4016905;29;20186;-51
2023/06/29 05:32:37;;;;;;;30.02;19.95;;;22.20;84.90;;;;;;3994893;29;20056;-48
2023/06/29 05:35:18;;;;;;;24.55;18.52;;;22.20;84.90;;;;;;4016130;29;20178;-50
2023/06/29 05:37:59;;;;;;;28.83;19.40;;;22.20;84.70;;;;;;4001941;29;20065;-49
2023/06/29 05:40:40;;;;;;;31.17;19.33;;;22.20;84.80;;;;;;4004164;29;20258;-47
2023/06/29 05:43:24;;;;;;;28.05;19.85;;;22.20;84.80;;;;;;4017014;29;20056;-48
2023/06/29 05:46:04;;;;;;;27.40;19.23;;;22.20;84.90;;;;;;4016451;29;20520;-51
2023/06/29 05:48:45;;;;;;;25.58;19.48;;;22.20;84.80;;;;;;4016964;29;20056;-52
2023/06/29 05:51:26;;;;;;;26.75;19.23;;;22.30;84.80;;;;;;4008223;29;20417;-52
2023/06/29 05:54:07;;;;;;;29.88;19.67;;;22.20;84.80;;;;;;4001454;29;20486;-54
2023/06/29 05:56:48;;;;;;;26.60;19.63;;;22.30;84.90;;;;;;4017026;29;20076;-51
2023/06/29 05:59:30;;;;;;;27.17;20.13;;;22.30;85.00;;;;;;4016913;29;20064;-51
2023/06/29 06:02:12;;;;;;;30.02;20.13;;;22.30;85.00;;;;;;4002422;29;20064;-47
2023/06/29 06:04:53;;;;;;;28.30;19.50;;;22.30;84.80;;;;;;4002074;29;20579;-48
2023/06/29 06:07:34;;;;;;;27.15;18.92;;;22.30;84.90;;;;;;4002086;29;20095;-49
2023/06/29 06:10:15;;;;;;;28.92;18.55;;;22.30;84.90;;;;;;4003007;29;20528;-49
2023/06/29 06:12:57;;;;;;;26.08;19.02;;;22.30;84.80;;;;;;4013927;29;20069;-49
2023/06/29 06:15:41;;;;;;;27.45;18.15;;;22.30;84.60;;;;;;4015673;29;20056;-49
2023/06/29 06:18:22;;;;;;;25.08;18.00;;;22.40;84.80;;;;;;4017719;29;20535;-49
2023/06/29 06:21:03;;;;;;;;;;;22.40;84.40;;;;;;4020466;29;20108;-46
2023/06/29 06:23:44;;;;;;;29.75;18.30;;;22.40;84.10;;;;;;4016247;29;19988;-52
2023/06/29 06:26:25;;;;;;;27.98;17.83;;;22.40;83.70;;;;;;4021452;29;20138;-48
2023/06/29 06:29:09;;;;;;;25.83;17.33;;;22.40;84.10;;;;;;4001801;29;20060;-52
2023/06/29 06:31:51;;;;;;;24.77;17.80;;;22.40;84.40;;;;;;4014743;29;20418;-54
2023/06/29 06:34:33;;;;;;;24.40;16.20;;;22.40;84.40;;;;;;4015912;29;20114;-51
2023/06/29 06:37:14;;;;;;;26.45;17.88;;;22.40;84.20;;;;;;4025930;29;20513;-52
2023/06/29 06:39:55;;;;;;;24.90;18.23;;;22.50;84.00;;;;;;4032038;29;20060;-50
2023/06/29 06:42:36;;;;;;;24.63;17.80;;;22.50;83.80;;;;;;4032659;29;20067;-50
2023/06/29 06:45:17;;;;;;;24.20;17.23;;;22.50;83.50;;;;;;4021344;29;20394;-52
2023/06/29 06:47:59;;;;;;;26.50;16.33;;;22.50;83.50;;;;;;4008308;29;20194;-52
2023/06/29 06:50:40;;;;;;;21.92;17.17;;;22.50;83.50;;;;;;4021643;29;20108;-45
2023/06/29 06:53:22;;;;;;;22.95;17.00;;;22.60;83.30;;;;;;4020987;29;20081;-45
2023/06/29 06:56:03;;;;;;;;;;;22.50;83.10;;;;;;4015891;29;20056;-48
2023/06/29 06:58:44;;;;;;;23.48;16.85;;;22.60;83.00;;;;;;4015451;29;20011;-45
2023/06/29 07:01:27;;;;;;;22.92;17.02;;;22.60;83.00;;;;;;4010318;29;20109;-46
2023/06/29 07:04:11;;;;;;;25.38;17.20;;;22.60;83.10;;;;;;4019596;29;20481;-45
2023/06/29 07:06:52;;;;;;;23.38;17.15;;;22.60;83.20;;;;;;4019870;29;20069;-47
2023/06/29 07:09:33;;;;;;;28.02;17.90;;;22.60;83.10;;;;;;4009291;29;20064;-45
2023/06/29 07:12:14;;;;;;;;;;;22.60;83.00;;;;;;4021634;29;20060;-45
2023/06/29 07:14:55;;;;;;;25.33;17.40;;;22.60;83.00;;;;;;4020992;29;19935;-49
2023/06/29 07:17:36;;;;;;;27.27;17.75;;;22.60;83.00;;;;;;4020011;29;20060;-51
2023/06/29 07:20:19;;;;;;;;;;;22.60;83.20;;;;;;4036843;29;20068;-48
2023/06/29 07:23:02;;;;;;;25.77;17.75;;;22.60;83.30;;;;;;4022231;29;19954;-49
2023/06/29 07:25:47;;;;;;;22.88;17.27;;;22.60;83.20;;;;;;4020167;29;20104;-49
2023/06/29 07:28:28;;;;;;;25.73;17.83;;;22.60;83.40;;;;;;4007584;29;20055;-48
2023/06/29 07:31:09;;;;;;;24.60;17.75;;;22.60;83.40;;;;;;4035598;29;20064;-48
2023/06/29 07:33:51;;;;;;;27.67;18.35;;;22.60;83.40;;;;;;4018009;29;20065;-48
2023/06/29 07:36:34;;;;;;;28.58;18.77;;;22.60;83.50;;;;;;4008957;29;20057;-51
2023/06/29 07:39:15;;;;;;;25.35;17.77;;;22.60;83.50;;;;;;4010382;29;20055;-53
2023/06/29 07:41:56;;;;;;;;;;;22.70;83.50;;;;;;3999890;29;20405;-49
2023/06/29 07:44:37;;;;;;;23.40;17.00;;;22.60;83.30;;;;;;4021308;29;20043;-50
2023/06/29 07:47:18;;;;;;;26.70;17.23;;;22.60;84.10;;;;;;4020695;29;20060;-51
2023/06/29 07:49:59;;;;;;;31.98;19.50;;;22.60;83.30;;;;;;4021198;29;20065;-49
2023/06/29 07:52:42;;;;;;;27.25;18.58;;;22.60;83.50;;;;;;4020920;29;20088;-47
2023/06/29 07:55:23;;;;;;;28.55;18.33;;;22.60;83.60;;;;;;4021121;29;20064;-46
2023/06/29 07:58:04;;;;;;;27.10;17.98;;;22.60;83.60;;;;;;4006642;29;20056;-52
2023/06/29 08:00:48;;;;;;;24.42;18.00;;;22.70;83.70;;;;;;4008561;29;20052;-50
2023/06/29 08:03:29;;;;;;;;;;;22.60;84.20;;;;;;4013957;29;20101;-49
2023/06/29 08:06:10;;;;;;;24.55;17.20;;;22.70;84.10;;;;;;4009681;29;19935;-52
2023/06/29 08:08:55;;;;;;;28.88;18.85;;;22.70;83.90;;;;;;4018534;29;20393;-49
2023/06/29 08:11:36;;;;;;;29.67;19.27;;;22.70;84.10;;;;;;4010879;29;20056;-52
2023/06/29 08:14:17;;;;;;;26.98;18.88;;;22.70;84.10;;;;;;4015971;29;20393;-49
2023/06/29 08:16:58;;;;;;;28.52;18.70;;;22.70;84.40;;;;;;4016422;29;20516;-44
2023/06/29 08:19:39;;;;;;;27.45;18.95;;;22.70;84.50;;;;;;4018829;29;20099;-47
2023/06/29 08:22:20;;;;;;;28.88;19.65;;;22.70;84.80;;;;;;4018768;29;20519;-46
2023/06/29 08:25:04;;;;;;;26.42;19.13;;;22.70;84.90;;;;;;4017184;29;20516;-45
2023/06/29 08:27:45;;;;;;;28.02;19.77;;;22.70;84.90;;;;;;4018564;29;20161;-45
2023/06/29 08:30:26;;;;;;;27.48;19.50;;;22.70;84.90;;;;;;4018551;29;20381;-45
2023/06/29 08:33:08;;;;;;;27.85;19.48;;;22.70;84.90;;;;;;4018477;29;20229;-45
2023/06/29 08:35:49;;;;;;;29.70;19.75;;;22.70;85.20;;;;;;3998047;29;20057;-45
2023/06/29 08:38:29;;;;;;;26.63;19.05;;;22.70;85.10;;;;;;4003738;29;20065;-45
2023/06/29 08:41:13;;;;;;;29.67;20.02;;;22.80;85.20;;;;;;4003165;29;20075;-47
2023/06/29 08:43:54;;;;;;;25.13;18.83;;;22.80;85.00;;;;;;4003085;29;20060;-48
2023/06/29 08:46:38;;;;;;;30.05;19.65;;;22.80;84.90;;;;;;4018620;29;20178;-45
2023/06/29 08:49:23;;;;;;;25.98;17.63;;;22.80;85.00;;;;;;4018344;29;20064;-47
2023/06/29 08:52:05;;;;;;;24.58;17.85;;;22.80;85.20;;;;;;4018415;29;20141;-47
2023/06/29 08:54:47;;;;;;;27.70;18.90;;;22.80;84.90;;;;;;4018831;29;20056;-49
2023/06/29 08:57:31;;;;;;;26.48;18.67;;;22.80;84.80;;;;;;4004796;29;20534;-45
2023/06/29 09:00:14;;;;;;;25.67;18.63;;;22.90;84.80;;;;;;4001820;29;20573;-49
2023/06/29 09:02:55;;;;;;;27.10;20.15;;;22.90;84.90;;;;;;4003244;29;20056;-46
2023/06/29 09:05:36;;;;;;;27.05;19.80;;;22.90;85.00;;;;;;4002813;29;20053;-46
2023/06/29 09:08:19;;;;;;;33.80;19.73;;;22.90;84.60;;;;;;4001732;29;20545;-46
2023/06/29 09:11:00;;;;;;;31.77;19.98;;;23.00;84.60;;;;;;4005824;29;20061;-47
2023/06/29 09:13:42;;;;;;;27.83;18.80;;;23.00;84.60;;;;;;4007423;29;20057;-45
2023/06/29 09:16:29;;;;;;;27.33;20.38;;;23.00;84.30;;;;;;4003086;29;20052;-46
2023/06/29 09:19:10;;;;;;;29.15;20.27;;;23.10;84.30;;;;;;4001711;29;20137;-46
2023/06/29 09:21:52;;;;;;;27.13;19.55;;;23.00;84.90;;;;;;4002910;29;20110;-47
2023/06/29 09:24:35;;;;;;;32.58;20.88;;;23.00;84.00;;;;;;4002850;29;20068;-45
2023/06/29 09:27:23;;;;;;;27.65;19.05;;;23.10;83.90;;;;;;4002476;29;20064;-46
2023/06/29 09:30:08;;;;;;;29.10;20.17;;;23.10;83.90;;;;;;4002445;29;20058;-48
2023/06/29 09:32:49;;;;;;;29.02;20.77;;;23.10;83.60;;;;;;4002556;29;20049;-51
2023/06/29 09:35:30;;;;;;;29.75;18.65;;;23.10;83.60;;;;;;4006953;29;20136;-46
2023/06/29 09:38:11;;;;;;;31.27;22.02;;;23.10;83.60;;;;;;4016217;29;20060;-50
2023/06/29 09:40:53;;;;;;;;;;;23.10;83.20;;;;;;4004439;29;20711;-47
2023/06/29 09:43:34;;;;;;;;;;;23.10;83.10;;;;;;4006020;29;19931;-46
2023/06/29 09:46:17;;;;;;;36.20;21.05;;;23.10;83.10;;;;;;4016940;29;20291;-44
2023/06/29 09:49:01;;;;;;;32.65;22.70;;;23.20;83.30;;;;;;4016900;29;20081;-45
2023/06/29 09:51:45;;;;;;;33.78;22.38;;;23.10;83.30;;;;;;4012273;29;20511;-48
2023/06/29 09:54:26;;;;;;;33.72;23.70;;;23.20;83.40;;;;;;4001524;29;20069;-50
2023/06/29 09:57:10;;;;;;;35.03;24.20;;;23.20;83.60;;;;;;4021051;29;20053;-45
2023/06/29 09:59:53;;;;;;;31.80;21.77;;;23.20;83.60;;;;;;4017212;29;20461;-47
2023/06/29 10:02:35;;;;;;;33.53;22.38;;;23.20;83.20;;;;;;4015567;29;20060;-45
2023/06/29 10:05:16;;;;;;;34.30;23.30;;;23.20;83.30;;;;;;4002357;29;20052;-46
2023/06/29 10:08:07;;;;;;;31.92;23.10;;;23.30;83.50;;;;;;4001870;29;20052;-46
2023/06/29 10:10:51;;;;;;;29.55;21.80;;;23.30;83.40;;;;;;4016955;29;20508;-46
2023/06/29 10:13:39;;;;;;;31.52;21.70;;;23.30;83.10;;;;;;4017146;29;20097;-46
2023/06/29 10:16:23;;;;;;;31.63;21.52;;;23.30;82.90;;;;;;4016895;29;20181;-47
2023/06/29 10:19:14;;;;;;;31.60;20.83;;;23.30;82.70;;;;;;3994528;29;20057;-48
2023/06/29 10:22:00;;;;;;;32.20;20.38;;;23.30;82.50;;;;;;3998074;29;20065;-46
2023/06/29 10:24:46;;;;;;;29.55;21.35;;;23.30;82.50;;;;;;4005417;29;20057;-45
2023/06/29 10:27:30;;;;;;;27.63;20.70;;;23.30;82.50;;;;;;4016462;29;20060;-48
2023/06/29 10:30:12;;;;;;;32.00;21.42;;;23.20;82.40;;;;;;4016686;29;20190;-44
2023/06/29 10:32:53;;;;;;;32.60;22.48;;;23.20;82.50;;;;;;4016456;29;20183;-44
2023/06/29 10:35:36;;;;;;;34.25;22.48;;;23.20;82.60;;;;;;3984628;29;20057;-46
2023/06/29 10:38:17;;;;;;;32.60;21.35;;;23.20;82.70;;;;;;3975012;29;20151;-48
2023/06/29 10:40:58;;;;;;;31.67;20.20;;;23.20;82.70;;;;;;3986058;29;20123;-44
2023/06/29 10:43:55;;;;;;;;;;;23.20;82.80;;;;;;3986889;29;20298;-45
2023/06/29 10:46:45;;;;;;;30.95;21.52;;;23.20;82.60;;;;;;3999690;29;19976;-45
2023/06/29 10:49:28;;;;;;;30.13;22.52;;;23.20;82.60;;;;;;4000861;29;20069;-46
2023/06/29 10:52:11;;;;;;;36.17;24.13;;;23.10;82.50;;;;;;4001169;29;20064;-49
2023/06/29 10:55:13;;;;;;;36.25;23.90;;;23.10;82.60;;;;;;4001297;29;20061;-45
2023/06/29 10:57:58;;;;;;;37.15;24.30;;;23.10;83.70;;;;;;3992245;29;20093;-46
2023/06/29 11:00:39;;;;;;;31.55;24.27;;;23.10;82.70;;;;;;3993793;29;20129;-49
2023/06/29 11:03:21;;;;;;;;;;;23.10;82.90;;;;;;4001408;29;20101;-45
2023/06/29 11:06:02;;;;;;;;;;;23.10;82.80;;;;;;4001446;29;19935;-48
2023/06/29 11:08:44;;;;;;;32.50;23.35;;;23.10;82.80;;;;;;4001205;29;19931;-45
2023/06/29 11:11:25;;;;;;;33.00;23.63;;;23.10;82.80;;;;;;3984892;29;20078;-48
2023/06/29 11:14:06;;;;;;;;;;;23.10;83.10;;;;;;3986875;29;20126;-49
2023/06/29 11:16:47;;;;;;;37.13;24.55;;;23.00;83.00;;;;;;3986224;29;20292;-46
2023/06/29 11:19:28;;;;;;;35.55;22.67;;;23.00;83.10;;;;;;3985906;29;20065;-46
2023/06/29 11:22:09;;;;;;;30.13;22.10;;;23.00;83.20;;;;;;3991174;29;20061;-48
2023/06/29 11:24:52;;;;;;;33.33;22.85;;;23.00;83.30;;;;;;4006205;29;20125;-46
2023/06/29 11:27:33;;;;;;;33.03;22.17;;;23.10;83.30;;;;;;3996413;29;20053;-47
2023/06/29 11:30:14;;;;;;;30.55;22.20;;;23.10;83.20;;;;;;3999851;29;20516;-47
2023/06/29 11:32:55;;;;;;;33.10;22.38;;;23.10;83.00;;;;;;4006482;29;20522;-47
2023/06/29 11:35:36;;;;;;;31.27;21.20;;;23.10;82.80;;;;;;4015337;29;20060;-48
2023/06/29 11:38:19;;;;;;;30.98;22.35;;;23.10;82.60;;;;;;4012580;29;20686;-49
2023/06/29 11:41:06;;;;;;;30.88;22.10;;;23.10;82.50;;;;;;4024720;29;20060;-52
2023/06/29 11:43:51;;;;;;;31.70;22.30;;;23.10;83.10;;;;;;4026071;29;20116;-47
2023/06/29 11:46:33;;;;;;;27.52;20.30;;;23.10;82.10;;;;;;4024322;29;20059;-45
2023/06/29 11:49:17;;;;;;;34.67;23.20;;;23.10;82.00;;;;;;4005995;29;20056;-48
2023/06/29 11:52:00;;;;;;;31.05;23.17;;;23.10;81.90;;;;;;4030208;29;20060;-50
2023/06/29 11:54:40;;;;;;;33.47;23.20;;;23.10;81.80;;;;;;4022575;29;20121;-47
2023/06/29 11:57:23;;;;;;;30.75;23.73;;;23.10;81.70;;;;;;4017228;29;20061;-46
2023/06/29 12:00:08;;;;;;;33.78;23.02;;;23.20;81.80;;;;;;4018708;29;20047;-53
2023/06/29 12:02:52;;;;;;;30.42;22.20;;;23.20;81.80;;;;;;4017551;29;20114;-48
2023/06/29 12:05:33;;;;;;;30.38;21.98;;;23.20;81.80;;;;;;4018554;29;20189;-50
2023/06/29 12:08:16;;;;;;;31.25;22.00;;;23.20;81.80;;;;;;4003388;29;20073;-53
2023/06/29 12:10:57;;;;;;;33.42;22.70;;;23.20;81.90;;;;;;4003510;29;20413;-51
2023/06/29 12:13:45;;;;;;;27.85;22.20;;;23.30;82.10;;;;;;4014120;29;20056;-48
2023/06/29 12:16:26;;;;;;;29.15;21.75;;;23.30;82.00;;;;;;4011882;29;20064;-47
2023/06/29 12:19:11;;;;;;;32.08;23.48;;;23.30;81.70;;;;;;4018323;29;20065;-47
2023/06/29 12:21:52;;;;;;;31.65;23.60;;;23.40;81.70;;;;;;4004525;29;20634;-45
2023/06/29 12:24:33;;;;;;;30.30;21.63;;;23.40;81.70;;;;;;4003212;29;20060;-47
2023/06/29 12:27:15;;;;;;;27.38;20.95;;;23.40;81.50;;;;;;4007052;29;20595;-50
2023/06/29 12:29:57;;;;;;;30.52;22.88;;;23.40;81.40;;;;;;4017983;29;20053;-51
2023/06/29 12:32:38;;;;;;;30.73;21.80;;;23.50;81.40;;;;;;4018358;29;20117;-49
2023/06/29 12:35:20;;;;;;;30.75;22.83;;;23.50;81.30;;;;;;4017525;29;20085;-50
2023/06/29 12:38:00;;;;;;;;;;;23.50;82.10;;;;;;4003699;29;20056;-44
2023/06/29 12:40:41;;;;;;;30.55;22.70;;;23.60;81.10;;;;;;3991819;29;20277;-44
2023/06/29 12:43:22;;;;;;;32.50;22.50;;;23.60;81.10;;;;;;3991778;29;20517;-48
2023/06/29 12:46:05;;;;;;;30.05;22.73;;;23.60;81.20;;;;;;4010412;29;20124;-47
2023/06/29 12:48:46;;;;;;;30.80;23.17;;;23.60;81.10;;;;;;4018325;29;20105;-44
2023/06/29 12:51:27;;;;;;;29.95;21.13;;;23.60;81.30;;;;;;4002764;29;20068;-45
2023/06/29 12:54:10;;;;;;;30.38;21.45;;;23.70;81.10;;;;;;4003070;29;20074;-47
2023/06/29 12:56:51;;;;;;;29.42;22.23;;;23.70;81.10;;;;;;4003206;29;20194;-48
2023/06/29 12:59:32;;;;;;;33.13;23.65;;;23.70;81.00;;;;;;4005006;29;20092;-46
2023/06/29 13:02:14;;;;;;;30.00;23.33;;;23.80;80.90;;;;;;4010406;29;20065;-47
2023/06/29 13:04:55;;;;;;;34.92;23.48;;;23.80;80.80;;;;;;3991249;29;20052;-47
2023/06/29 13:07:36;;;;;;;;;;;23.90;80.80;;;;;;4008375;29;20193;-46
2023/06/29 13:10:18;;;;;;;29.60;22.25;;;23.90;80.60;;;;;;4033211;29;20332;-48
2023/06/29 13:12:59;;;;;;;;;;;23.90;80.50;;;;;;4007766;29;20056;-49
2023/06/29 13:15:40;;;;;;;27.17;18.88;;;24.00;80.40;;;;;;4017071;29;19935;-48
2023/06/29 13:18:22;;;;;;;29.90;22.05;;;24.00;80.30;;;;;;4016987;29;20068;-46
2023/06/29 13:21:03;;;;;;;32.95;22.90;;;24.00;80.30;;;;;;4001874;29;20061;-49
2023/06/29 13:23:44;;;;;;;32.28;23.27;;;24.00;80.20;;;;;;4001693;29;20056;-49
2023/06/29 13:26:26;;;;;;;33.63;22.08;;;24.10;80.10;;;;;;4001537;29;20417;-46
2023/06/29 13:29:07;;;;;;;32.85;23.65;;;24.10;80.00;;;;;;4003566;29;20057;-44
2023/06/29 13:31:47;;;;;;;30.65;20.67;;;24.10;79.70;;;;;;4017228;29;20060;-46
2023/06/29 13:34:30;;;;;;;;;;;24.10;79.70;;;;;;4017687;29;20084;-44
2023/06/29 13:37:14;;;;;;;33.40;22.00;;;24.10;79.60;;;;;;4002441;29;19951;-44
2023/06/29 13:39:55;;;;;;;30.73;20.48;;;24.10;79.50;;;;;;3992574;29;20057;-47
2023/06/29 13:42:36;;;;;;;;;;;24.10;79.40;;;;;;4002828;29;20065;-44
2023/06/29 13:45:17;;;;;;;30.38;20.63;;;24.10;79.40;;;;;;4002538;29;19931;-44
2023/06/29 13:47:59;;;;;;;31.50;21.00;;;24.10;79.30;;;;;;4002098;29;20056;-44
2023/06/29 13:50:42;;;;;;;30.40;20.20;;;24.10;79.10;;;;;;4002108;29;20068;-45